createdAt,value
2018-07-14T00:00:23.267Z,46.16
2018-07-14T00:02:51.810Z,46.92
2018-07-14T00:05:22.753Z,46.94
2018-07-14T00:07:51.376Z,46.41
2018-07-14T00:10:20.066Z,47.19
2018-07-14T00:12:53.350Z,47.68
2018-07-14T00:15:22.542Z,47.85
2018-07-14T00:17:51.127Z,47.16
2018-07-14T00:20:21.711Z,47.52
2018-07-14T00:22:50.378Z,48.09
2018-07-14T00:25:25.570Z,48.06
2018-07-14T00:27:55.591Z,48.06
2018-07-14T00:30:24.137Z,48.13
2018-07-14T00:32:56.651Z,48.32
2018-07-14T00:35:25.240Z,47.83
2018-07-14T00:37:53.846Z,48.43
2018-07-14T00:40:22.863Z,47.84
2018-07-14T00:42:54.315Z,47.60
2018-07-14T00:45:34.892Z,47.31
2018-07-14T00:48:05.603Z,47.99
2018-07-14T00:50:34.235Z,48.37
2018-07-14T00:53:03.131Z,47.94
2018-07-14T00:55:38.726Z,48.13
2018-07-14T00:58:07.364Z,48.49
2018-07-14T01:00:35.987Z,48.27
2018-07-14T01:03:12.240Z,48.38
2018-07-14T01:05:40.886Z,48.33
2018-07-14T01:08:09.506Z,49.03
2018-07-14T01:10:38.334Z,48.47
2018-07-14T01:13:22.165Z,48.57
2018-07-14T01:15:51.167Z,48.69
2018-07-14T01:18:21.565Z,49.08
2018-07-14T01:20:50.275Z,49.05
2018-07-14T01:23:25.013Z,49.18
2018-07-14T01:25:57.848Z,49.48
2018-07-14T01:28:29.058Z,50.27
2018-07-14T01:30:58.261Z,50.08
2018-07-14T01:33:27.203Z,50.11
2018-07-14T01:35:55.729Z,50.77
2018-07-14T01:38:29.058Z,51.08
2018-07-14T01:40:57.939Z,50.54
2018-07-14T01:43:26.532Z,50.74
2018-07-14T01:45:55.184Z,51.73
2018-07-14T01:48:23.790Z,50.72
2018-07-14T01:50:52.323Z,51.49
2018-07-14T01:53:21.280Z,52.04
2018-07-14T01:55:55.945Z,52.11
2018-07-14T01:58:24.814Z,52.32
2018-07-14T02:00:57.152Z,51.84
2018-07-14T02:03:26.019Z,52.69
2018-07-14T02:05:58.575Z,52.38
2018-07-14T02:08:27.087Z,53.17
2018-07-14T02:10:56.821Z,52.53
2018-07-14T02:13:28.458Z,53.17
2018-07-14T02:15:57.105Z,52.73
2018-07-14T02:23:50.847Z,53.52
2018-07-14T02:26:19.823Z,54.14
2018-07-14T02:28:48.739Z,53.46
2018-07-14T02:31:28.379Z,54.23
2018-07-14T02:36:36.610Z,53.66
2018-07-14T02:39:06.504Z,53.69
2018-07-14T02:41:35.197Z,54.33
2018-07-14T02:44:05.309Z,54.75
2018-07-14T02:46:34.072Z,54.63
2018-07-14T02:49:02.898Z,54.11
2018-07-14T02:51:32.038Z,54.87
2018-07-14T02:54:00.635Z,55.05
2018-07-14T02:56:36.191Z,54.99
2018-07-14T03:03:41.311Z,55.59
2018-07-14T03:06:11.657Z,56.32
2018-07-14T03:08:40.245Z,55.59
2018-07-14T03:11:08.948Z,56.34
2018-07-14T03:13:38.088Z,56.36
2018-07-14T03:16:06.682Z,55.60
2018-07-14T03:18:35.271Z,56.29
2018-07-14T03:21:04.498Z,55.83
2018-07-14T03:23:33.129Z,56.06
2018-07-14T03:26:04.664Z,56.18
2018-07-14T03:28:33.512Z,56.93
2018-07-14T03:31:03.347Z,56.84
2018-07-14T03:33:32.876Z,56.98
2018-07-14T03:36:02.668Z,56.49
2018-07-14T03:38:31.268Z,56.83
2018-07-14T03:40:59.775Z,56.84
2018-07-14T03:43:28.735Z,57.12
2018-07-14T03:46:02.744Z,57.50
2018-07-14T03:48:31.401Z,57.49
2018-07-14T03:50:59.918Z,57.69
2018-07-14T03:53:28.516Z,57.60
2018-07-14T03:55:57.640Z,57.47
2018-07-14T03:58:26.203Z,57.38
2018-07-14T04:00:54.895Z,57.54
2018-07-14T04:03:31.442Z,57.33
2018-07-14T04:06:00.082Z,57.27
2018-07-14T04:08:31.641Z,57.19
2018-07-14T04:11:02.950Z,57.81
2018-07-14T04:13:37.601Z,58.00
2018-07-14T04:16:06.461Z,58.08
2018-07-14T04:18:36.091Z,57.09
2018-07-14T04:21:04.727Z,57.45
2018-07-14T04:23:36.995Z,57.24
2018-07-14T04:26:07.144Z,57.57
2018-07-14T04:28:35.802Z,56.93
2018-07-14T04:31:04.411Z,57.45
2018-07-14T04:33:38.972Z,56.91
2018-07-14T04:36:07.548Z,57.00
2018-07-14T04:38:36.088Z,57.01
2018-07-14T04:41:05.398Z,56.46
2018-07-14T04:43:34.010Z,56.69
2018-07-14T04:46:02.922Z,57.30
2018-07-14T04:48:31.952Z,56.79
2018-07-14T04:51:00.614Z,56.58
2018-07-14T04:53:32.514Z,55.87
2018-07-14T04:56:01.175Z,56.06
2018-07-14T04:58:29.907Z,55.83
2018-07-14T05:00:59.054Z,55.20
2018-07-14T05:03:27.698Z,55.66
2018-07-14T05:05:56.402Z,54.72
2018-07-14T05:11:05.336Z,54.72
2018-07-14T05:13:34.274Z,55.08
2018-07-14T05:16:04.717Z,54.92
2018-07-14T05:18:39.832Z,54.83
2018-07-14T05:21:08.927Z,54.18
2018-07-14T05:23:37.529Z,53.93
2018-07-14T05:26:06.351Z,54.07
2018-07-14T05:28:49.923Z,53.80
2018-07-14T05:31:18.554Z,53.88
2018-07-14T05:33:47.689Z,53.71
2018-07-14T05:36:16.556Z,53.76
2018-07-14T05:38:45.196Z,52.96
2018-07-14T05:41:14.117Z,53.47
2018-07-14T05:43:42.659Z,53.05
2018-07-14T05:48:51.227Z,52.72
2018-07-14T05:51:19.744Z,51.95
2018-07-14T05:53:48.263Z,51.72
2018-07-14T05:56:17.280Z,51.75
2018-07-14T05:58:45.926Z,51.27
2018-07-14T06:01:14.556Z,50.99
2018-07-14T06:03:43.723Z,50.71
2018-07-14T06:06:12.410Z,50.99
2018-07-14T06:08:41.016Z,50.30
2018-07-14T06:11:16.386Z,50.53
2018-07-14T06:13:45.047Z,50.80
2018-07-14T06:16:13.758Z,50.74
2018-07-14T06:18:43.523Z,50.51
2018-07-14T06:21:17.065Z,49.40
2018-07-14T06:23:45.656Z,49.32
2018-07-14T06:26:19.802Z,48.87
2018-07-14T06:28:48.502Z,49.25
2018-07-14T06:31:24.195Z,49.99
2018-07-14T06:33:55.737Z,49.50
2018-07-14T06:36:24.454Z,48.42
2018-07-14T06:38:53.265Z,50.75
2018-07-14T06:41:27.395Z,50.33
2018-07-14T06:43:55.930Z,50.38
2018-07-14T06:46:24.812Z,50.64
2018-07-14T06:48:53.822Z,50.17
2018-07-14T06:53:55.997Z,50.39
2018-07-14T06:56:25.946Z,49.90
2018-07-14T06:58:54.729Z,50.48
2018-07-14T07:01:23.335Z,50.06
2018-07-14T07:03:52.715Z,51.29
2018-07-14T07:06:21.780Z,53.54
2018-07-14T07:08:50.640Z,54.71
2018-07-14T07:11:26.896Z,54.51
2018-07-14T07:13:55.496Z,55.12
2018-07-14T07:16:29.042Z,54.82
2018-07-14T07:18:57.673Z,56.43
2018-07-14T07:21:26.298Z,57.87
2018-07-14T07:23:55.367Z,57.19
2018-07-14T07:26:26.146Z,57.61
2018-07-14T07:28:55.222Z,57.28
2018-07-14T07:31:25.044Z,57.34
2018-07-14T07:33:54.132Z,57.06
2018-07-14T07:36:22.755Z,54.23
2018-07-14T07:38:51.749Z,53.65
2018-07-14T07:41:26.685Z,53.14
2018-07-14T07:43:55.651Z,52.26
2018-07-14T07:46:24.263Z,49.78
2018-07-14T07:48:52.906Z,50.35
2018-07-14T07:51:21.979Z,49.44
2018-07-14T07:53:50.873Z,49.66
2018-07-14T07:56:19.444Z,47.54
2018-07-14T07:58:54.498Z,47.22
2018-07-14T08:01:23.838Z,47.54
2018-07-14T08:03:54.296Z,46.50
2018-07-14T08:06:23.561Z,46.31
2018-07-14T08:08:52.096Z,47.01
2018-07-14T08:11:23.589Z,46.74
2018-07-14T08:13:52.853Z,45.68
2018-07-14T08:16:22.516Z,45.08
2018-07-14T08:18:51.105Z,44.66
2018-07-14T08:21:26.533Z,43.82
2018-07-14T08:23:55.402Z,44.24
2018-07-14T08:26:25.746Z,44.13
2018-07-14T08:28:54.348Z,42.80
2018-07-14T08:31:31.128Z,42.62
2018-07-14T08:34:00.242Z,41.92
2018-07-14T08:36:28.964Z,42.78
2018-07-14T08:39:02.180Z,41.98
2018-07-14T08:41:34.675Z,42.04
2018-07-14T08:44:04.273Z,41.28
2018-07-14T08:46:34.395Z,41.50
2018-07-14T08:49:03.040Z,41.43
2018-07-14T08:51:31.703Z,41.80
2018-07-14T08:54:00.784Z,41.35
2018-07-14T08:56:29.617Z,41.03
2018-07-14T08:58:58.239Z,40.58
2018-07-14T09:04:19.764Z,40.98
2018-07-14T09:06:48.263Z,40.74
2018-07-14T09:09:17.334Z,40.08
2018-07-14T09:11:45.823Z,40.80
2018-07-14T09:14:14.325Z,40.17
2018-07-14T09:16:49.726Z,40.19
2018-07-14T09:19:18.406Z,40.05
2018-07-14T09:21:50.221Z,39.55
2018-07-14T09:24:20.142Z,39.50
2018-07-14T09:26:48.686Z,39.36
2018-07-14T09:29:17.662Z,38.41
2018-07-14T09:31:46.196Z,38.06
2018-07-14T09:34:14.792Z,37.36
2018-07-14T09:36:50.280Z,37.62
2018-07-14T09:39:18.953Z,37.25
2018-07-14T09:41:47.559Z,37.56
2018-07-14T09:44:20.932Z,37.66
2018-07-14T09:46:49.608Z,37.61
2018-07-14T09:49:20.499Z,37.92
2018-07-14T09:51:50.281Z,37.85
2018-07-14T09:54:19.691Z,37.51
2018-07-14T09:56:49.263Z,37.45
2018-07-14T09:59:18.257Z,38.03
2018-07-14T10:01:48.088Z,36.15
2018-07-14T10:04:16.783Z,36.22
2018-07-14T10:06:46.580Z,35.91
2018-07-14T10:09:15.249Z,35.95
2018-07-14T10:11:43.883Z,36.26
2018-07-14T10:14:12.819Z,35.86
2018-07-14T10:16:46.220Z,35.63
2018-07-14T10:19:15.126Z,35.94
2018-07-14T10:21:44.032Z,35.89
2018-07-14T10:24:13.056Z,35.35
2018-07-14T10:26:41.800Z,33.81
2018-07-14T10:29:11.928Z,34.38
2018-07-14T10:31:41.672Z,33.55
2018-07-14T10:34:10.249Z,32.62
2018-07-14T10:36:39.198Z,33.34
2018-07-14T10:39:08.648Z,32.34
2018-07-14T10:41:37.531Z,33.16
2018-07-14T10:44:06.529Z,32.20
2018-07-14T10:46:39.152Z,32.59
2018-07-14T10:49:07.792Z,32.39
2018-07-14T10:51:39.757Z,30.86
2018-07-14T10:54:08.677Z,30.45
2018-07-14T10:56:38.999Z,29.84
2018-07-14T10:59:18.613Z,30.28
2018-07-14T11:01:49.803Z,29.55
2018-07-14T11:04:19.890Z,28.93
2018-07-14T11:06:48.751Z,28.65
2018-07-14T11:09:17.943Z,28.81
2018-07-14T11:11:46.714Z,28.76
2018-07-14T11:14:19.267Z,28.41
2018-07-14T11:16:48.048Z,28.16
2018-07-14T11:19:19.819Z,27.82
2018-07-14T11:22:00.051Z,27.07
2018-07-14T11:24:43.407Z,26.65
2018-07-14T11:27:31.750Z,26.22
2018-07-14T11:30:07.645Z,26.14
2018-07-14T11:32:36.700Z,27.49
2018-07-14T11:35:05.618Z,27.35
2018-07-14T11:37:34.986Z,25.88
2018-07-14T11:40:07.148Z,26.66
2018-07-14T11:42:36.354Z,25.54
2018-07-14T11:45:05.100Z,25.26
2018-07-14T11:47:35.420Z,24.90
2018-07-14T11:50:05.867Z,25.72
2018-07-14T11:52:34.856Z,25.24
2018-07-14T11:55:04.426Z,25.63
2018-07-14T11:57:34.183Z,24.88
2018-07-14T12:00:04.305Z,25.33
2018-07-14T12:02:34.556Z,25.26
2018-07-14T12:05:03.795Z,24.20
2018-07-14T12:07:33.632Z,24.60
2018-07-14T12:10:04.580Z,23.73
2018-07-14T12:12:33.432Z,23.42
2018-07-14T12:15:03.088Z,23.38
2018-07-14T12:17:33.179Z,23.44
2018-07-14T12:20:02.582Z,23.08
2018-07-14T12:22:38.120Z,23.20
2018-07-14T12:25:07.273Z,22.25
2018-07-14T12:27:42.307Z,22.32
2018-07-14T12:32:51.081Z,21.19
2018-07-14T12:35:24.981Z,21.94
2018-07-14T12:37:53.671Z,21.40
2018-07-14T12:40:22.710Z,20.37
2018-07-14T12:42:51.512Z,20.74
2018-07-14T12:45:20.232Z,20.10
2018-07-14T12:47:50.422Z,20.16
2018-07-14T12:50:19.733Z,19.41
2018-07-14T12:52:52.836Z,18.90
2018-07-14T12:55:22.304Z,18.63
2018-07-14T12:57:51.756Z,18.41
2018-07-14T13:00:21.056Z,17.89
2018-07-14T13:02:50.393Z,17.30
2018-07-14T13:05:19.450Z,17.06
2018-07-14T13:07:48.320Z,16.87
2018-07-14T13:10:19.021Z,16.47
2018-07-14T13:12:47.895Z,17.79
2018-07-14T13:15:20.236Z,17.94
2018-07-14T13:17:50.000Z,18.31
2018-07-14T13:20:19.304Z,17.91
2018-07-14T13:22:48.153Z,16.79
2018-07-14T13:25:17.784Z,17.04
2018-07-14T13:27:46.621Z,16.10
2018-07-14T13:30:15.807Z,15.18
2018-07-14T13:32:47.789Z,14.62
2018-07-14T13:35:18.283Z,13.99
2018-07-14T13:37:46.970Z,13.62
2018-07-14T13:40:15.888Z,13.27
2018-07-14T13:42:51.292Z,12.92
2018-07-14T13:45:20.121Z,13.43
2018-07-14T13:47:48.816Z,13.62
2018-07-14T13:50:18.676Z,14.52
2018-07-14T13:52:51.550Z,14.60
2018-07-14T13:55:20.270Z,14.47
2018-07-14T13:57:48.944Z,13.97
2018-07-14T14:00:18.063Z,14.40
2018-07-14T14:02:46.778Z,13.32
2018-07-14T14:05:17.437Z,11.64
2018-07-14T14:07:46.467Z,10.99
2018-07-14T14:10:25.329Z,10.73
2018-07-14T14:12:54.200Z,9.95
2018-07-14T14:15:22.880Z,9.47
2018-07-14T14:17:51.489Z,9.66
2018-07-14T14:20:20.125Z,9.74
2018-07-14T14:22:48.698Z,9.71
2018-07-14T14:25:17.740Z,8.83
2018-07-14T14:27:57.235Z,8.23
2018-07-14T14:30:25.768Z,8.55
2018-07-14T14:32:59.025Z,8.42
2018-07-14T14:35:27.574Z,7.98
2018-07-14T14:37:56.579Z,8.13
2018-07-14T14:40:25.810Z,7.70
2018-07-14T14:42:56.056Z,7.25
2018-07-14T14:45:25.951Z,6.90
2018-07-14T14:47:54.654Z,7.59
2018-07-14T14:50:24.573Z,7.80
2018-07-14T14:52:54.588Z,7.60
2018-07-14T14:55:23.148Z,7.42
2018-07-14T14:57:52.117Z,6.68
2018-07-14T15:00:22.114Z,7.64
2018-07-14T15:02:50.724Z,7.56
2018-07-14T15:05:19.479Z,7.58
2018-07-14T15:07:48.036Z,7.74
2018-07-14T15:10:16.756Z,7.59
2018-07-14T15:12:45.744Z,7.08
2018-07-14T15:15:17.987Z,7.33
2018-07-14T15:17:46.829Z,8.05
2018-07-14T15:20:15.750Z,9.46
2018-07-14T15:22:44.677Z,10.46
2018-07-14T15:25:16.654Z,12.11
2018-07-14T15:27:45.265Z,13.62
2018-07-14T15:30:14.188Z,14.18
2018-07-14T15:32:43.277Z,15.04
2018-07-14T15:35:11.896Z,16.04
2018-07-14T15:37:42.403Z,15.90
2018-07-14T15:40:11.299Z,16.55
2018-07-14T15:42:39.955Z,16.63
2018-07-14T15:45:09.294Z,16.68
2018-07-14T15:47:48.008Z,16.03
2018-07-14T15:50:17.228Z,16.29
2018-07-14T15:52:45.956Z,16.17
2018-07-14T15:55:14.686Z,16.16
2018-07-14T15:57:43.836Z,15.82
2018-07-14T16:00:13.120Z,16.75
2018-07-14T16:02:41.775Z,17.30
2018-07-14T16:05:10.418Z,16.52
2018-07-14T16:07:46.449Z,16.50
2018-07-14T16:10:15.070Z,16.83
2018-07-14T16:12:43.665Z,17.58
2018-07-14T16:15:12.744Z,16.81
2018-07-14T16:17:41.367Z,17.44
2018-07-14T16:20:10.029Z,16.74
2018-07-14T16:22:39.942Z,17.49
2018-07-14T16:25:13.552Z,17.69
2018-07-14T16:27:42.232Z,18.47
2018-07-14T16:30:11.677Z,18.88
2018-07-14T16:32:40.416Z,18.74
2018-07-14T16:35:09.189Z,18.88
2018-07-14T16:37:38.294Z,18.96
2018-07-14T16:40:06.996Z,19.39
2018-07-14T16:42:35.675Z,19.14
2018-07-14T16:45:05.232Z,19.38
2018-07-14T16:50:13.723Z,20.06
2018-07-14T16:52:42.641Z,19.90
2018-07-14T16:55:11.413Z,20.08
2018-07-14T16:57:40.305Z,21.33
2018-07-14T17:00:09.425Z,21.20
2018-07-14T17:02:38.103Z,20.94
2018-07-14T17:05:07.105Z,20.83
2018-07-14T17:07:36.078Z,21.00
2018-07-14T17:10:06.011Z,21.00
2018-07-14T17:12:34.777Z,20.15
2018-07-14T17:17:56.311Z,20.73
2018-07-14T17:20:39.624Z,20.18
2018-07-14T17:23:09.599Z,20.79
2018-07-14T17:25:38.630Z,20.60
2018-07-14T17:28:07.357Z,21.02
2018-07-14T17:30:36.072Z,21.38
2018-07-14T17:33:05.028Z,22.23
2018-07-14T17:35:33.728Z,21.62
2018-07-14T17:38:03.569Z,22.48
2018-07-14T17:40:38.162Z,21.95
2018-07-14T17:43:07.417Z,22.33
2018-07-14T17:45:40.118Z,22.37
2018-07-14T17:48:09.548Z,22.62
2018-07-14T17:50:39.869Z,22.02
2018-07-14T17:53:08.603Z,22.31
2018-07-14T17:55:37.626Z,23.64
2018-07-14T17:58:10.139Z,23.32
2018-07-14T18:00:38.919Z,23.98
2018-07-14T18:03:07.957Z,23.82
2018-07-14T18:05:36.589Z,23.47
2018-07-14T18:08:08.586Z,23.85
2018-07-14T18:10:37.780Z,23.50
2018-07-14T18:13:06.486Z,24.09
2018-07-14T18:18:09.482Z,23.29
2018-07-14T18:20:42.856Z,23.70
2018-07-14T18:23:12.296Z,22.81
2018-07-14T18:25:40.915Z,22.93
2018-07-14T18:28:09.869Z,23.10
2018-07-14T18:30:39.324Z,24.41
2018-07-14T18:33:22.602Z,23.89
2018-07-14T18:35:51.258Z,24.49
2018-07-14T18:38:20.262Z,24.24
2018-07-14T18:43:22.488Z,24.42
2018-07-14T18:45:52.765Z,24.38
2018-07-14T18:48:21.393Z,25.46
2018-07-14T18:50:56.012Z,25.82
2018-07-14T18:53:26.430Z,24.96
2018-07-14T18:55:55.020Z,26.58
2018-07-14T18:58:23.743Z,25.72
2018-07-14T19:00:53.562Z,26.31
2018-07-14T19:03:23.272Z,26.79
2018-07-14T19:05:51.949Z,27.10
2018-07-14T19:08:21.959Z,26.51
2018-07-14T19:10:52.845Z,26.37
2018-07-14T19:13:21.457Z,26.81
2018-07-14T19:15:50.406Z,26.89
2018-07-14T19:18:19.014Z,27.01
2018-07-14T19:20:51.647Z,28.15
2018-07-14T19:23:20.673Z,27.93
2018-07-14T19:25:49.423Z,27.77
2018-07-14T19:28:18.516Z,28.47
2018-07-14T19:30:47.473Z,28.59
2018-07-14T19:35:49.356Z,28.62
2018-07-14T19:38:20.472Z,29.09
2018-07-14T19:40:49.686Z,29.41
2018-07-14T19:43:20.083Z,29.69
2018-07-14T19:45:49.101Z,28.86
2018-07-14T19:48:18.040Z,29.65
2018-07-14T19:50:46.819Z,29.24
2018-07-14T19:53:16.006Z,28.88
2018-07-14T19:55:46.285Z,29.82
2018-07-14T19:58:14.912Z,29.12
2018-07-14T20:00:49.846Z,29.59
2018-07-14T20:03:18.752Z,29.35
2018-07-14T20:05:50.108Z,30.45
2018-07-14T20:08:18.909Z,30.71
2018-07-14T20:10:47.667Z,29.80
2018-07-14T20:13:21.972Z,30.70
2018-07-14T20:15:50.613Z,30.20
2018-07-14T20:18:19.340Z,31.04
2018-07-14T20:20:48.547Z,31.15
2018-07-14T20:23:22.515Z,30.26
2018-07-14T20:25:52.009Z,30.95
2018-07-14T20:28:21.017Z,31.37
2018-07-14T20:30:49.740Z,31.41
2018-07-14T20:33:18.768Z,30.87
2018-07-14T20:35:47.637Z,31.75
2018-07-14T20:38:16.613Z,32.05
2018-07-14T20:40:45.186Z,31.15
2018-07-14T20:43:14.124Z,31.39
2018-07-14T20:45:48.856Z,31.50
2018-07-14T20:48:18.160Z,32.36
2018-07-14T20:50:46.782Z,32.60
2018-07-14T20:53:15.429Z,32.30
2018-07-14T20:55:44.765Z,32.75
2018-07-14T20:58:13.454Z,32.83
2018-07-14T21:00:42.052Z,33.46
2018-07-14T21:03:12.157Z,33.21
2018-07-14T21:05:40.953Z,33.84
2018-07-14T21:08:09.555Z,33.19
2018-07-14T21:10:38.594Z,34.42
2018-07-14T21:13:07.435Z,33.79
2018-07-14T21:15:37.220Z,35.02
2018-07-14T21:18:07.105Z,34.34
2018-07-14T21:20:35.801Z,35.02
2018-07-14T21:23:04.481Z,35.19
2018-07-14T21:25:34.020Z,34.71
2018-07-14T21:28:02.902Z,34.50
2018-07-14T21:30:31.640Z,35.41
2018-07-14T21:33:00.691Z,35.30
2018-07-14T21:35:29.319Z,35.15
2018-07-14T21:37:57.961Z,34.51
2018-07-14T21:40:26.878Z,35.11
2018-07-14T21:42:55.649Z,34.50
2018-07-14T21:45:27.694Z,34.72
2018-07-14T21:47:56.614Z,35.55
2018-07-14T21:50:25.228Z,34.85
2018-07-14T21:53:00.636Z,35.46
2018-07-14T21:55:29.672Z,35.51
2018-07-14T21:57:59.015Z,35.31
2018-07-14T22:00:36.601Z,35.37
2018-07-14T22:03:06.837Z,35.58
2018-07-14T22:05:35.525Z,36.26
2018-07-14T22:08:06.409Z,36.66
2018-07-14T22:10:35.035Z,36.19
2018-07-14T22:13:07.060Z,36.82
2018-07-14T22:15:38.155Z,36.38
2018-07-14T22:18:06.873Z,36.46
2018-07-14T22:20:35.552Z,36.71
2018-07-14T22:23:05.336Z,37.61
2018-07-14T22:25:34.039Z,37.68
2018-07-14T22:28:03.740Z,37.80
2018-07-14T22:30:32.344Z,37.50
2018-07-14T22:33:02.517Z,37.97
2018-07-14T22:35:31.490Z,38.46
2018-07-14T22:38:01.466Z,37.72
2018-07-14T22:40:30.333Z,38.18
2018-07-14T22:43:05.466Z,39.01
2018-07-14T22:48:10.389Z,38.64
2018-07-14T22:50:47.361Z,38.81
2018-07-14T22:53:17.809Z,38.88
2018-07-14T22:55:49.935Z,39.33
2018-07-14T22:58:25.071Z,39.94
2018-07-14T23:00:54.829Z,39.55
2018-07-14T23:03:24.781Z,40.53
2018-07-14T23:05:53.568Z,40.44
2018-07-14T23:08:22.154Z,40.14
2018-07-14T23:10:50.767Z,41.21
2018-07-14T23:13:19.762Z,41.22
2018-07-14T23:15:48.788Z,41.47
2018-07-14T23:18:18.008Z,41.77
2018-07-14T23:20:47.146Z,41.21
2018-07-14T23:23:15.752Z,41.30
2018-07-14T23:25:44.772Z,42.32
2018-07-14T23:28:13.703Z,41.80
2018-07-14T23:33:17.608Z,41.92
2018-07-14T23:35:52.038Z,42.91
2018-07-14T23:38:20.699Z,42.79
2018-07-14T23:40:49.422Z,42.32
2018-07-14T23:43:18.247Z,43.32
2018-07-14T23:45:46.851Z,43.36
2018-07-14T23:48:15.596Z,43.42
2018-07-14T23:50:44.555Z,43.67
2018-07-14T23:53:13.184Z,43.12
2018-07-14T23:55:41.962Z,43.22
2018-07-14T23:58:11.057Z,44.12
